Darien, GA (31305)

11:22 AM EST on February 12, 2016 (GMT -0500)
Country Walk | | Change Station
CLOSE
Current Station
Personal Weather Station
Location: Brunswick, GA
Elevation: 30 ft
Nearby Weather Stations
Active Advisory: Flood Warning

Elev 30 ft 31.27 °N, 81.48 °W | Updated 3 seconds ago

Overcast
Overcast
66.9 °F
Feels Like 66.9 °F
N
4.0
Wind Variable Wind from WSW
Gusts 10.0 mph

Today
High -- | Low -- °F
--% Chance of Precip.
Yesterday
High -- | Low -- °F
Precip. -- in
Pressure 30.15 in
Visibility 10.0 miles
Clouds Mostly Cloudy 2200 ft
Dew Point 58 °F
Humidity 74%
Rainfall 0.00 in
Snow Depth Not available.
7:10 AM 6:09 PM
Waxing Crescent, 21% visible
METAR KBQK 121615Z AUTO 24013KT 10SM BKN022 18/13 A3015 RMK AO2
Pressure 30.15 in
Visibility 10.0 miles
Clouds Mostly Cloudy 2200 ft
Dew Point 58 °F
Humidity 74%
Rainfall 0.00 in
Snow Depth Not available.
7:10 AM 6:09 PM
Waxing Crescent, 21% visible
METAR KBQK 121615Z AUTO 24013KT 10SM BKN022 18/13 A3015 RMK AO2

10-Day Weather Forecast

Almanac

Astronomy

Feb. 12, 2016 Rise Set
Actual Time
Civil Twilight
Nautical Twilight
Astronomical Twilight
Moon
Length of Visible Light
Length of Day
Tomorrow will be .
, % of the Moon is Illuminated

Today's Extremes

State Highs State Lows

Community

WunderPhotos

Upload Photos

1,892,350 photos uploaded!

WunderBlog® & News

Nearby

Air Quality

  Air Quality AQ Index Pollutant
Not available.

Snow Depth

Station Depth Elevation

Earthquake Activity

City Distance Mag. Time & Date
Minimum magnitude displayed is 2.5.

Coastal Water Temperatures

Place Temperature

Stations

Nearby Weather Stations

Station Location Temp. Windchill Dew Point Humidity Wind Precip. Elev Updated Type
                   

Watches & Warnings

Flood Warning
Issued: 8:45 AM EST Feb. 12, 2016 – National Weather Service

The Flood Warning continues for
the Altamaha river at Everett city.
* Until further notice... or until the warning is cancelled.
* At 8:15 am Friday the stage was 13.5 feet.
* Moderate flooding is occurring and moderate flooding is forecast.
* Flood stage is 12.0 feet.
* Forecast... the river will continue to fall to a stage of 13.4 feet
by tomorrow morning.
* Impact... at 13.0 feet... water begins to encroach upon Altamaha
regional park in Glynn County. This inlcudes Altamaha Park Road,
Betty Lott Lane and Bee Tree Island Road. In McIntosh County,
Barrington Park at the end of Harper Lake Road begins to flood.
Blue reach Road also begins to flood near the Long County line.




               Fld observed 7am EST / 8am EDT forecast
location stg stg day time Sat sun Mon Tue Wed

Altamaha
Everett cit 12 13.5 Fri 08 am 13.4 13.2 13.1 13.0 12.8




Lat... Lon 3152 8172 3139 8162 3130 8144 3138 8142 3143 8155 3155 8162